createdAt,value
2022-07-27T00:01:10.115Z,1.83
2022-07-27T00:03:38.817Z,2.20
2022-07-27T00:06:07.533Z,2.30
2022-07-27T00:08:35.758Z,2.08
2022-07-27T00:11:04.299Z,1.80
2022-07-27T00:13:32.615Z,1.58
2022-07-27T00:16:00.781Z,1.83
2022-07-27T00:18:30.232Z,2.38
2022-07-27T00:20:58.224Z,1.50
2022-07-27T00:23:26.375Z,1.75
2022-07-27T00:25:54.808Z,1.58
2022-07-27T00:28:23.091Z,1.55
2022-07-27T00:30:51.115Z,1.60
2022-07-27T00:33:19.186Z,1.67
2022-07-27T00:35:48.610Z,1.60
2022-07-27T00:38:17.061Z,1.48
2022-07-27T00:40:45.589Z,1.25
2022-07-27T00:43:14.013Z,1.60
2022-07-27T00:45:42.207Z,1.58
2022-07-27T00:48:10.211Z,1.45
2022-07-27T00:50:39.397Z,1.40
2022-07-27T00:53:09.780Z,1.70
2022-07-27T00:55:39.468Z,1.90
2022-07-27T00:58:08.717Z,1.85
2022-07-27T01:00:37.778Z,1.52
2022-07-27T01:03:09.609Z,1.70
2022-07-27T01:05:43.172Z,1.52
2022-07-27T01:08:14.805Z,1.42
2022-07-27T01:10:44.511Z,2.05
2022-07-27T01:13:13.525Z,2.08
2022-07-27T01:15:42.744Z,1.88
2022-07-27T01:18:13.896Z,1.55
2022-07-27T01:20:42.686Z,1.83
2022-07-27T01:23:12.423Z,2.08
2022-07-27T01:25:43.890Z,2.20
2022-07-27T01:28:11.984Z,2.03
2022-07-27T01:30:40.132Z,1.95
2022-07-27T01:33:09.966Z,1.88
2022-07-27T01:35:40.107Z,1.80
2022-07-27T01:38:10.842Z,1.85
2022-07-27T01:40:40.722Z,2.10
2022-07-27T01:43:08.769Z,1.48
2022-07-27T01:45:36.775Z,1.67
2022-07-27T01:48:05.028Z,1.50
2022-07-27T01:50:33.345Z,2.28
2022-07-27T01:53:01.457Z,1.60
2022-07-27T01:55:31.483Z,1.25
2022-07-27T01:58:09.578Z,1.70
2022-07-27T02:00:38.138Z,1.60
2022-07-27T02:03:07.418Z,1.60
2022-07-27T02:05:36.146Z,1.63
2022-07-27T02:08:04.346Z,1.80
2022-07-27T02:10:32.656Z,1.70
2022-07-27T02:12:59.722Z,1.40
2022-07-27T02:15:42.151Z,1.50
2022-07-27T02:18:26.773Z,1.70
2022-07-27T02:20:59.494Z,1.33
2022-07-27T02:23:27.554Z,1.67
2022-07-27T02:25:55.576Z,1.65
2022-07-27T02:28:23.551Z,1.77
2022-07-27T02:30:52.974Z,2.03
2022-07-27T02:33:21.252Z,2.13
2022-07-27T02:35:49.394Z,1.40
2022-07-27T02:38:17.403Z,1.70
2022-07-27T02:40:45.606Z,1.80
2022-07-27T02:43:14.042Z,2.10
2022-07-27T02:45:42.143Z,2.05
2022-07-27T02:48:11.501Z,2.08
2022-07-27T02:50:39.690Z,1.50
2022-07-27T02:53:07.782Z,1.50
2022-07-27T02:55:35.829Z,1.60
2022-07-27T02:58:03.823Z,1.48
2022-07-27T03:00:32.237Z,1.80
2022-07-27T03:03:00.314Z,1.70
2022-07-27T03:05:29.831Z,2.30
2022-07-27T03:07:57.913Z,1.52
2022-07-27T03:10:25.901Z,2.03
2022-07-27T03:12:53.952Z,1.70
2022-07-27T03:15:21.968Z,1.73
2022-07-27T03:17:49.968Z,1.80
2022-07-27T03:20:18.043Z,1.55
2022-07-27T03:22:47.459Z,2.08
2022-07-27T03:25:15.438Z,1.65
2022-07-27T03:27:43.421Z,1.75
2022-07-27T03:30:12.204Z,1.58
2022-07-27T03:32:40.756Z,1.60
2022-07-27T03:35:09.467Z,1.75
2022-07-27T03:37:37.713Z,1.58
2022-07-27T03:40:08.772Z,1.80
2022-07-27T03:42:37.011Z,2.00
2022-07-27T03:45:06.153Z,1.80
2022-07-27T03:47:34.202Z,1.70
2022-07-27T03:50:02.213Z,2.00
2022-07-27T03:52:30.814Z,1.80
2022-07-27T03:54:58.886Z,1.90
2022-07-27T03:57:28.385Z,2.00
2022-07-27T03:59:56.454Z,2.00
2022-07-27T04:02:24.479Z,2.25
2022-07-27T04:04:52.785Z,2.15
2022-07-27T04:07:21.123Z,2.25
2022-07-27T04:09:49.100Z,2.42
2022-07-27T04:12:20.012Z,2.60
2022-07-27T04:14:49.824Z,2.75
2022-07-27T04:17:56.264Z,2.90
2022-07-27T04:20:07.031Z,3.28
2022-07-27T04:22:35.028Z,2.60
2022-07-27T04:25:03.059Z,2.60
2022-07-27T04:27:31.286Z,2.55
2022-07-27T04:30:00.600Z,2.78
2022-07-27T04:32:28.585Z,2.58
2022-07-27T04:34:56.665Z,2.40
2022-07-27T04:37:24.832Z,2.42
2022-07-27T04:39:57.355Z,3.13
2022-07-27T04:42:25.440Z,2.83
2022-07-27T04:44:53.466Z,2.88
2022-07-27T04:47:22.854Z,2.72
2022-07-27T04:49:50.920Z,2.38
2022-07-27T04:52:19.295Z,2.55
2022-07-27T04:54:55.588Z,3.10
2022-07-27T04:57:24.039Z,2.65
2022-07-27T04:59:52.139Z,2.90
2022-07-27T05:02:20.300Z,2.22
2022-07-27T05:04:49.645Z,2.90
2022-07-27T05:07:17.647Z,2.20
2022-07-27T05:09:46.032Z,2.90
2022-07-27T05:12:14.162Z,2.55
2022-07-27T05:14:42.208Z,2.00
2022-07-27T05:17:10.360Z,2.50
2022-07-27T05:19:40.282Z,2.28
2022-07-27T05:22:10.482Z,2.10
2022-07-27T05:24:38.629Z,2.50
2022-07-27T05:27:07.054Z,2.20
2022-07-27T05:29:35.146Z,2.65
2022-07-27T05:32:03.328Z,2.67
2022-07-27T05:34:31.635Z,2.28
2022-07-27T05:36:59.622Z,2.15
2022-07-27T05:39:29.769Z,2.33
2022-07-27T05:41:57.970Z,2.17
2022-07-27T05:44:26.029Z,2.00
2022-07-27T05:46:54.101Z,2.38
2022-07-27T05:49:22.676Z,2.10
2022-07-27T05:51:50.888Z,2.17
2022-07-27T05:54:19.546Z,2.35
2022-07-27T05:56:48.975Z,2.15
2022-07-27T05:59:16.977Z,2.63
2022-07-27T06:01:45.259Z,1.52
2022-07-27T06:04:14.695Z,2.15
2022-07-27T06:07:00.598Z,1.85
2022-07-27T06:09:28.619Z,2.50
2022-07-27T06:11:58.052Z,2.33
2022-07-27T06:14:26.229Z,2.95
2022-07-27T06:16:54.650Z,2.83
2022-07-27T06:19:22.765Z,2.40
2022-07-27T06:21:53.838Z,2.42
2022-07-27T06:24:22.576Z,2.30
2022-07-27T06:26:50.634Z,2.25
2022-07-27T06:29:20.260Z,1.88
2022-07-27T06:31:48.290Z,2.35
2022-07-27T06:34:16.610Z,2.30
2022-07-27T06:36:45.414Z,1.48
2022-07-27T06:39:14.253Z,2.08
2022-07-27T06:41:42.851Z,1.88
2022-07-27T06:44:11.205Z,1.20
2022-07-27T06:46:40.667Z,1.60
2022-07-27T06:49:08.943Z,1.05
2022-07-27T06:51:37.514Z,1.05
2022-07-27T06:54:06.144Z,1.10
2022-07-27T06:56:34.358Z,1.27
2022-07-27T06:59:02.548Z,1.23
2022-07-27T07:01:30.640Z,1.23
2022-07-27T07:04:00.512Z,1.15
2022-07-27T07:06:28.772Z,1.05
2022-07-27T07:08:56.938Z,1.10
2022-07-27T07:11:25.021Z,0.98
2022-07-27T07:13:53.211Z,0.70
2022-07-27T07:16:21.397Z,1.20
2022-07-27T07:18:52.537Z,1.05
2022-07-27T07:21:22.515Z,0.90
2022-07-27T07:23:51.393Z,1.60
2022-07-27T07:26:19.480Z,1.48
2022-07-27T07:28:47.542Z,1.10
2022-07-27T07:31:16.167Z,1.30
2022-07-27T07:33:44.378Z,0.90
2022-07-27T07:36:14.941Z,1.00
2022-07-27T07:38:45.333Z,1.35
2022-07-27T07:41:14.208Z,1.02
2022-07-27T07:43:42.340Z,1.30
2022-07-27T07:46:10.597Z,0.75
2022-07-27T07:48:40.036Z,1.00
2022-07-27T07:51:08.058Z,0.90
2022-07-27T07:53:40.947Z,0.93
2022-07-27T07:56:11.014Z,1.33
2022-07-27T07:58:39.098Z,1.08
2022-07-27T08:01:07.132Z,0.90
2022-07-27T08:03:35.362Z,0.98
2022-07-27T08:06:03.601Z,1.10
2022-07-27T08:08:31.679Z,1.00
2022-07-27T08:10:59.820Z,1.15
2022-07-27T08:13:29.379Z,0.82
2022-07-27T08:15:57.432Z,1.05
2022-07-27T08:18:25.558Z,1.17
2022-07-27T08:20:53.734Z,0.82
2022-07-27T08:23:21.840Z,1.25
2022-07-27T08:25:49.962Z,1.05
2022-07-27T08:28:18.088Z,1.40
2022-07-27T08:30:48.484Z,1.52
2022-07-27T08:33:18.137Z,1.48
2022-07-27T08:35:46.974Z,1.73
2022-07-27T08:38:15.236Z,1.90
2022-07-27T08:40:46.319Z,1.38
2022-07-27T08:43:23.667Z,1.65
2022-07-27T08:45:57.574Z,2.03
2022-07-27T08:48:26.896Z,1.90
2022-07-27T08:50:55.145Z,1.40
2022-07-27T08:53:23.940Z,1.67
2022-07-27T08:55:52.140Z,1.48
2022-07-27T08:58:20.323Z,1.73
2022-07-27T09:00:50.038Z,1.60
2022-07-27T09:03:21.720Z,0.80
2022-07-27T09:05:51.882Z,1.10
2022-07-27T09:08:24.460Z,1.20
2022-07-27T09:10:55.464Z,1.13
2022-07-27T09:13:25.912Z,1.17
2022-07-27T09:16:16.167Z,1.10
2022-07-27T09:18:44.774Z,1.20
2022-07-27T09:21:15.739Z,1.20
2022-07-27T09:23:47.793Z,1.20
2022-07-27T09:26:30.991Z,1.10
2022-07-27T09:29:01.850Z,1.15
2022-07-27T09:31:31.139Z,1.13
2022-07-27T09:34:01.899Z,1.08
2022-07-27T09:36:31.360Z,1.83
2022-07-27T09:39:03.607Z,0.95
2022-07-27T09:41:42.958Z,1.35
2022-07-27T09:47:00.595Z,0.75
2022-07-27T09:49:32.566Z,1.02
2022-07-27T09:52:02.641Z,1.00
2022-07-27T09:54:44.431Z,0.95
2022-07-27T09:57:12.862Z,1.10
2022-07-27T09:59:41.115Z,1.40
2022-07-27T10:02:09.703Z,0.82
2022-07-27T10:04:39.739Z,1.10
2022-07-27T10:07:13.295Z,1.00
2022-07-27T10:09:43.316Z,0.90
2022-07-27T10:12:11.699Z,0.80
2022-07-27T10:14:39.807Z,0.88
2022-07-27T10:17:12.952Z,1.00
2022-07-27T10:19:46.881Z,1.10
2022-07-27T10:22:15.337Z,0.95
2022-07-27T10:24:43.609Z,1.42
2022-07-27T10:27:20.695Z,1.00
2022-07-27T10:29:49.078Z,0.90
2022-07-27T10:32:25.314Z,1.10
2022-07-27T10:34:55.319Z,1.35
2022-07-27T10:37:27.841Z,1.40
2022-07-27T10:40:13.303Z,0.93
2022-07-27T10:42:42.004Z,1.00
2022-07-27T10:45:11.442Z,1.00
2022-07-27T10:47:45.713Z,1.00
2022-07-27T10:52:52.213Z,0.90
2022-07-27T10:55:48.231Z,1.00
2022-07-27T10:58:45.885Z,0.85
2022-07-27T11:01:14.546Z,1.13
2022-07-27T11:03:49.501Z,0.85
2022-07-27T11:07:09.986Z,1.05
2022-07-27T11:10:03.445Z,0.90
2022-07-27T11:12:30.058Z,1.00
2022-07-27T11:14:59.363Z,0.93
2022-07-27T11:20:16.883Z,1.00
2022-07-27T11:23:26.626Z,1.00
2022-07-27T11:25:34.273Z,0.90
2022-07-27T11:28:08.193Z,1.10
2022-07-27T11:30:36.316Z,0.82
2022-07-27T11:33:05.849Z,1.10
2022-07-27T11:35:34.014Z,1.10
2022-07-27T11:38:06.290Z,0.75
2022-07-27T11:40:56.869Z,0.80
2022-07-27T11:43:38.885Z,0.93
2022-07-27T11:46:15.494Z,0.95
2022-07-27T11:49:06.718Z,0.75
2022-07-27T11:51:36.796Z,0.80
2022-07-27T11:54:08.117Z,0.50
2022-07-27T11:56:38.172Z,0.70
2022-07-27T11:59:13.240Z,0.73
2022-07-27T12:01:44.922Z,0.98
2022-07-27T12:04:24.899Z,1.00
2022-07-27T12:07:06.765Z,0.80
2022-07-27T12:09:39.232Z,0.95
2022-07-27T12:12:13.977Z,0.77
2022-07-27T12:14:43.676Z,0.60
2022-07-27T12:17:19.030Z,0.88
2022-07-27T12:19:56.338Z,0.85
2022-07-27T12:22:29.427Z,0.65
2022-07-27T12:25:00.383Z,0.65
2022-07-27T12:27:29.425Z,0.60
2022-07-27T12:30:07.879Z,1.10
2022-07-27T12:32:37.473Z,0.70
2022-07-27T12:35:23.936Z,0.85
2022-07-27T12:38:01.023Z,0.65
2022-07-27T12:40:31.896Z,1.05
2022-07-27T12:43:01.797Z,0.60
2022-07-27T12:45:35.452Z,0.80
2022-07-27T12:48:11.212Z,0.95
2022-07-27T12:50:41.025Z,0.90
2022-07-27T12:53:10.044Z,0.90
2022-07-27T12:55:39.607Z,0.70
2022-07-27T12:58:10.675Z,0.98
2022-07-27T13:00:39.217Z,1.15
2022-07-27T13:03:08.222Z,0.63
2022-07-27T13:05:36.926Z,1.20
2022-07-27T13:08:05.599Z,1.10
2022-07-27T13:10:34.057Z,1.08
2022-07-27T13:13:04.093Z,0.73
2022-07-27T13:15:32.243Z,0.85
2022-07-27T13:18:00.657Z,0.90
2022-07-27T13:20:29.003Z,0.80
2022-07-27T13:22:57.228Z,1.05
2022-07-27T13:25:25.549Z,1.13
2022-07-27T13:27:55.286Z,1.15
2022-07-27T13:30:25.264Z,0.90
2022-07-27T13:32:53.805Z,0.77
2022-07-27T13:35:22.166Z,0.82
2022-07-27T13:37:50.712Z,0.80
2022-07-27T13:40:18.836Z,0.95
2022-07-27T13:42:46.916Z,0.90
2022-07-27T13:45:15.243Z,0.90
2022-07-27T13:47:44.695Z,1.05
2022-07-27T13:50:18.747Z,1.00
2022-07-27T13:52:48.420Z,1.10
2022-07-27T13:55:17.569Z,1.10
2022-07-27T13:57:46.761Z,0.98
2022-07-27T14:00:15.983Z,0.90
2022-07-27T14:02:46.115Z,1.10
2022-07-27T14:05:14.845Z,0.90
2022-07-27T14:07:44.572Z,1.25
2022-07-27T14:10:36.127Z,1.20
2022-07-27T14:13:08.158Z,1.25
2022-07-27T14:15:53.256Z,1.05
2022-07-27T14:18:25.917Z,0.77
2022-07-27T14:20:54.676Z,1.25
2022-07-27T14:23:23.291Z,1.02
2022-07-27T14:25:51.423Z,0.98
2022-07-27T14:28:19.731Z,0.55
2022-07-27T14:30:48.396Z,1.00
2022-07-27T14:33:16.584Z,0.80
2022-07-27T14:35:46.361Z,0.80
2022-07-27T14:38:24.766Z,0.93
2022-07-27T14:40:57.808Z,0.45
2022-07-27T14:43:26.611Z,0.75
2022-07-27T14:45:54.723Z,0.88
2022-07-27T14:48:32.392Z,0.80
2022-07-27T14:51:12.295Z,0.50
2022-07-27T14:53:40.361Z,0.63
2022-07-27T14:56:08.355Z,0.90
2022-07-27T14:58:36.339Z,0.60
2022-07-27T15:01:04.515Z,0.70
2022-07-27T15:03:32.706Z,0.70
2022-07-27T15:06:00.756Z,0.85
2022-07-27T15:08:30.158Z,0.63
2022-07-27T15:10:58.718Z,0.77
2022-07-27T15:13:26.785Z,0.80
2022-07-27T15:15:56.249Z,0.63
2022-07-27T15:18:24.450Z,0.80
2022-07-27T15:20:52.556Z,0.90
2022-07-27T15:23:20.787Z,0.50
2022-07-27T15:25:50.280Z,0.90
2022-07-27T15:28:18.413Z,0.98
2022-07-27T15:30:46.498Z,0.70
2022-07-27T15:33:14.605Z,0.75
2022-07-27T15:35:42.868Z,0.70
2022-07-27T15:38:10.932Z,0.70
2022-07-27T15:40:41.317Z,1.00
2022-07-27T15:43:12.498Z,0.98
2022-07-27T15:45:41.400Z,0.57
2022-07-27T15:48:11.040Z,0.77
2022-07-27T15:50:40.065Z,0.50
2022-07-27T15:53:08.675Z,0.80
2022-07-27T15:55:37.614Z,0.60
2022-07-27T15:58:06.311Z,0.60
2022-07-27T16:00:40.553Z,0.95
2022-07-27T16:03:09.199Z,0.70
2022-07-27T16:05:37.398Z,0.80
2022-07-27T16:08:06.133Z,0.75
2022-07-27T16:10:34.283Z,0.90
2022-07-27T16:13:02.859Z,0.98
2022-07-27T16:15:48.674Z,1.25
2022-07-27T16:18:18.116Z,1.05
2022-07-27T16:20:46.290Z,0.95
2022-07-27T16:23:18.878Z,0.80
2022-07-27T16:26:03.843Z,1.08
2022-07-27T16:28:34.567Z,0.60
2022-07-27T16:31:03.380Z,0.95
2022-07-27T16:33:32.912Z,1.00
2022-07-27T16:36:00.948Z,0.75
2022-07-27T16:38:29.200Z,0.80
2022-07-27T16:40:57.174Z,0.70
2022-07-27T16:43:38.392Z,1.10
2022-07-27T16:46:08.456Z,1.60
2022-07-27T16:48:41.710Z,1.42
2022-07-27T16:53:40.367Z,1.73
2022-07-27T16:56:09.002Z,0.63
2022-07-27T16:58:37.827Z,0.68
2022-07-27T17:01:06.587Z,1.48
2022-07-27T17:03:34.739Z,0.90
2022-07-27T17:06:06.395Z,0.98
2022-07-27T17:08:34.946Z,1.17
2022-07-27T17:11:02.976Z,0.75
2022-07-27T17:13:34.919Z,1.25
2022-07-27T17:16:04.245Z,0.80
2022-07-27T17:18:39.048Z,0.95
2022-07-27T17:21:12.608Z,1.00
2022-07-27T17:23:41.722Z,1.00
2022-07-27T17:26:11.139Z,1.17
2022-07-27T17:28:40.569Z,0.82
2022-07-27T17:31:10.598Z,1.02
2022-07-27T17:33:39.538Z,1.05
2022-07-27T17:36:15.068Z,0.82
2022-07-27T17:38:44.049Z,0.95
2022-07-27T17:41:12.463Z,1.27
2022-07-27T17:43:40.600Z,0.88
2022-07-27T17:46:10.028Z,1.30
2022-07-27T17:48:39.870Z,0.73
2022-07-27T17:51:10.582Z,0.85
2022-07-27T17:53:39.015Z,1.10
2022-07-27T17:56:08.513Z,1.00
2022-07-27T17:58:36.955Z,1.00
2022-07-27T18:01:06.196Z,0.98
2022-07-27T18:03:34.857Z,0.80
2022-07-27T18:06:02.946Z,0.70
2022-07-27T18:08:32.407Z,1.08
2022-07-27T18:11:00.537Z,0.60
2022-07-27T18:13:38.004Z,0.70
2022-07-27T18:16:09.254Z,0.80
2022-07-27T18:18:38.097Z,0.95
2022-07-27T18:21:06.765Z,0.90
2022-07-27T18:23:36.556Z,0.75
2022-07-27T18:26:04.649Z,1.35
2022-07-27T18:28:38.980Z,0.90
2022-07-27T18:31:10.171Z,0.98
2022-07-27T18:33:40.507Z,0.75
2022-07-27T18:36:08.999Z,1.00
2022-07-27T18:38:39.165Z,1.10
2022-07-27T18:41:07.695Z,1.08
2022-07-27T18:43:35.716Z,0.98
2022-07-27T18:46:04.073Z,1.30
2022-07-27T18:48:32.208Z,1.10
2022-07-27T18:51:00.288Z,1.17
2022-07-27T18:53:28.365Z,0.85
2022-07-27T18:55:57.957Z,0.85
2022-07-27T18:58:27.600Z,1.17
2022-07-27T19:00:55.867Z,1.65
2022-07-27T19:03:24.552Z,1.45
2022-07-27T19:05:54.881Z,0.70
2022-07-27T19:08:24.047Z,0.75
2022-07-27T19:10:52.395Z,0.70
2022-07-27T19:13:22.045Z,0.82
2022-07-27T19:15:50.265Z,0.70
2022-07-27T19:18:19.018Z,0.90
2022-07-27T19:20:47.468Z,0.98
2022-07-27T19:23:15.513Z,1.02
2022-07-27T19:25:45.145Z,0.90
2022-07-27T19:28:15.890Z,0.82
2022-07-27T19:30:45.368Z,1.05
2022-07-27T19:33:13.453Z,1.10
2022-07-27T19:35:41.581Z,1.48
2022-07-27T19:38:10.661Z,1.00
2022-07-27T19:40:44.776Z,0.90
2022-07-27T19:43:13.574Z,0.98
2022-07-27T19:45:42.029Z,0.70
2022-07-27T19:48:11.863Z,1.00
2022-07-27T19:50:40.413Z,1.02
2022-07-27T19:53:09.391Z,1.10
2022-07-27T19:55:37.576Z,1.00
2022-07-27T19:58:05.567Z,1.27
2022-07-27T20:00:34.263Z,0.80
2022-07-27T20:03:03.195Z,1.25
2022-07-27T20:05:33.108Z,1.10
2022-07-27T20:08:01.146Z,0.80
2022-07-27T20:10:29.309Z,0.90
2022-07-27T20:12:57.685Z,1.10
2022-07-27T20:15:26.294Z,1.02
2022-07-27T20:17:55.731Z,1.30
2022-07-27T20:20:24.287Z,1.02
2022-07-27T20:22:54.439Z,1.48
2022-07-27T20:25:23.461Z,0.88
2022-07-27T20:27:52.104Z,1.55
2022-07-27T20:30:21.068Z,1.35
2022-07-27T20:32:49.996Z,1.00
2022-07-27T20:35:18.596Z,1.00
2022-07-27T20:37:47.379Z,1.02
2022-07-27T20:40:16.979Z,1.10
2022-07-27T20:42:45.798Z,0.90
2022-07-27T20:45:14.861Z,1.42
2022-07-27T20:47:43.649Z,1.52
2022-07-27T20:50:13.819Z,1.23
2022-07-27T20:52:42.610Z,1.65
2022-07-27T20:55:12.023Z,1.33
2022-07-27T20:57:41.431Z,1.10
2022-07-27T21:00:10.453Z,1.38
2022-07-27T21:02:39.405Z,1.10
2022-07-27T21:05:09.044Z,1.70
2022-07-27T21:07:37.148Z,1.17
2022-07-27T21:10:05.707Z,1.30
2022-07-27T21:12:33.868Z,1.15
2022-07-27T21:15:03.750Z,0.90
2022-07-27T21:17:31.852Z,1.20
2022-07-27T21:19:59.933Z,1.40
2022-07-27T21:22:28.838Z,0.90
2022-07-27T21:24:57.622Z,1.10
2022-07-27T21:27:26.215Z,1.10
2022-07-27T21:29:54.624Z,1.10
2022-07-27T21:32:23.963Z,1.00
2022-07-27T21:34:52.077Z,1.10
2022-07-27T21:37:20.024Z,1.30
2022-07-27T21:39:48.115Z,1.30
2022-07-27T21:42:16.193Z,1.33
2022-07-27T21:44:44.185Z,1.05
2022-07-27T21:47:14.224Z,1.77
2022-07-27T21:49:44.414Z,1.42
2022-07-27T21:52:12.415Z,1.27
2022-07-27T21:54:40.675Z,1.38
2022-07-27T21:57:08.745Z,1.30
2022-07-27T21:59:36.788Z,1.40
2022-07-27T22:02:05.290Z,1.08
2022-07-27T22:04:33.579Z,1.33
2022-07-27T22:07:02.945Z,1.10
2022-07-27T22:09:30.970Z,1.00
2022-07-27T22:11:59.274Z,1.10
2022-07-27T22:14:27.496Z,1.23
2022-07-27T22:16:55.553Z,1.38
2022-07-27T22:19:23.997Z,0.90
2022-07-27T22:21:51.966Z,1.08
2022-07-27T22:24:21.320Z,0.88
2022-07-27T22:26:49.864Z,1.15
2022-07-27T22:29:17.945Z,1.20
2022-07-27T22:31:46.039Z,0.98
2022-07-27T22:34:14.503Z,0.88
2022-07-27T22:36:43.043Z,1.00
2022-07-27T22:39:11.637Z,1.10
2022-07-27T22:41:41.736Z,0.90
2022-07-27T22:44:09.765Z,1.17
2022-07-27T22:46:37.750Z,1.42
2022-07-27T22:49:05.893Z,1.27
2022-07-27T22:51:49.623Z,1.02
2022-07-27T22:54:21.417Z,1.23
2022-07-27T22:56:50.919Z,1.10
2022-07-27T22:59:19.110Z,0.95
2022-07-27T23:01:48.361Z,0.90
2022-07-27T23:04:17.929Z,1.00
2022-07-27T23:06:46.430Z,1.27
2022-07-27T23:09:14.660Z,0.88
2022-07-27T23:11:42.853Z,1.10
2022-07-27T23:14:12.911Z,1.08
2022-07-27T23:16:41.814Z,1.00
2022-07-27T23:19:10.343Z,1.23
2022-07-27T23:21:39.596Z,1.10
2022-07-27T23:24:11.082Z,1.00
2022-07-27T23:26:39.658Z,1.10
2022-07-27T23:29:07.819Z,1.20
2022-07-27T23:31:37.357Z,0.85
2022-07-27T23:34:05.403Z,1.17
2022-07-27T23:36:33.522Z,1.10
2022-07-27T23:39:01.622Z,0.88
2022-07-27T23:41:29.803Z,1.13
2022-07-27T23:43:57.861Z,1.20
2022-07-27T23:46:26.107Z,1.13
2022-07-27T23:48:55.593Z,1.52
2022-07-27T23:51:23.666Z,1.00
2022-07-27T23:53:51.796Z,1.05
2022-07-27T23:56:19.818Z,0.93
2022-07-27T23:58:47.840Z,1.30
